sensor_id;sensor_type;location;lat;lon;timestamp;P1;durP1;ratioP1;P2;durP2;ratioP2
19414;SDS011;9843;48.882;12.592;2023-02-15T00:01:54;113.00;;;44.47;;
19414;SDS011;9843;48.882;12.592;2023-02-15T00:04:23;132.53;;;42.83;;
19414;SDS011;9843;48.882;12.592;2023-02-15T00:07:11;178.33;;;50.50;;
19414;SDS011;9843;48.882;12.592;2023-02-15T00:09:38;152.17;;;49.63;;
19414;SDS011;9843;48.882;12.592;2023-02-15T00:12:05;185.70;;;52.23;;
19414;SDS011;9843;48.882;12.592;2023-02-15T00:14:33;148.57;;;48.27;;
19414;SDS011;9843;48.882;12.592;2023-02-15T00:17:00;131.10;;;43.13;;
19414;SDS011;9843;48.882;12.592;2023-02-15T00:19:27;155.80;;;48.23;;
19414;SDS011;9843;48.882;12.592;2023-02-15T00:21:54;113.37;;;44.67;;
19414;SDS011;9843;48.882;12.592;2023-02-15T00:24:22;116.43;;;44.37;;
19414;SDS011;9843;48.882;12.592;2023-02-15T00:26:49;89.83;;;38.60;;
19414;SDS011;9843;48.882;12.592;2023-02-15T00:29:17;103.03;;;38.50;;
19414;SDS011;9843;48.882;12.592;2023-02-15T00:31:44;70.23;;;36.93;;
19414;SDS011;9843;48.882;12.592;2023-02-15T00:34:12;159.03;;;48.70;;
19414;SDS011;9843;48.882;12.592;2023-02-15T00:36:40;94.37;;;38.33;;
19414;SDS011;9843;48.882;12.592;2023-02-15T00:39:07;165.13;;;48.37;;
19414;SDS011;9843;48.882;12.592;2023-02-15T00:41:35;135.13;;;44.57;;
19414;SDS011;9843;48.882;12.592;2023-02-15T00:44:03;138.67;;;45.60;;
19414;SDS011;9843;48.882;12.592;2023-02-15T00:46:30;144.47;;;43.60;;
19414;SDS011;9843;48.882;12.592;2023-02-15T00:48:57;144.23;;;41.27;;
19414;SDS011;9843;48.882;12.592;2023-02-15T00:51:25;126.93;;;39.87;;
19414;SDS011;9843;48.882;12.592;2023-02-15T00:53:52;136.03;;;42.73;;
19414;SDS011;9843;48.882;12.592;2023-02-15T00:56:19;103.33;;;42.00;;
19414;SDS011;9843;48.882;12.592;2023-02-15T00:58:47;161.30;;;50.47;;
19414;SDS011;9843;48.882;12.592;2023-02-15T01:01:15;80.77;;;40.03;;
19414;SDS011;9843;48.882;12.592;2023-02-15T01:03:42;97.13;;;47.40;;
19414;SDS011;9843;48.882;12.592;2023-02-15T01:06:10;177.63;;;53.43;;
19414;SDS011;9843;48.882;12.592;2023-02-15T01:08:38;206.80;;;55.47;;
19414;SDS011;9843;48.882;12.592;2023-02-15T01:11:06;157.10;;;52.27;;
19414;SDS011;9843;48.882;12.592;2023-02-15T01:13:33;148.53;;;43.30;;
19414;SDS011;9843;48.882;12.592;2023-02-15T01:16:02;122.83;;;43.73;;
19414;SDS011;9843;48.882;12.592;2023-02-15T01:18:29;166.63;;;47.53;;
19414;SDS011;9843;48.882;12.592;2023-02-15T01:20:56;86.40;;;39.20;;
19414;SDS011;9843;48.882;12.592;2023-02-15T01:23:23;104.67;;;40.93;;
19414;SDS011;9843;48.882;12.592;2023-02-15T01:25:50;137.30;;;44.77;;
19414;SDS011;9843;48.882;12.592;2023-02-15T01:28:17;111.83;;;46.70;;
19414;SDS011;9843;48.882;12.592;2023-02-15T01:30:44;212.50;;;49.73;;
19414;SDS011;9843;48.882;12.592;2023-02-15T01:33:13;102.30;;;42.13;;
19414;SDS011;9843;48.882;12.592;2023-02-15T01:35:42;96.13;;;40.03;;
19414;SDS011;9843;48.882;12.592;2023-02-15T01:38:10;123.63;;;47.73;;
19414;SDS011;9843;48.882;12.592;2023-02-15T01:40:37;113.07;;;40.33;;
19414;SDS011;9843;48.882;12.592;2023-02-15T01:43:07;137.07;;;44.27;;
19414;SDS011;9843;48.882;12.592;2023-02-15T01:45:35;110.77;;;42.10;;
19414;SDS011;9843;48.882;12.592;2023-02-15T01:48:03;92.07;;;38.50;;
19414;SDS011;9843;48.882;12.592;2023-02-15T01:50:32;105.30;;;40.87;;
19414;SDS011;9843;48.882;12.592;2023-02-15T01:53:01;111.67;;;44.37;;
19414;SDS011;9843;48.882;12.592;2023-02-15T01:55:31;190.57;;;49.27;;
19414;SDS011;9843;48.882;12.592;2023-02-15T01:57:59;145.03;;;48.33;;
19414;SDS011;9843;48.882;12.592;2023-02-15T02:00:26;143.43;;;48.20;;
19414;SDS011;9843;48.882;12.592;2023-02-15T02:02:53;159.67;;;46.63;;
19414;SDS011;9843;48.882;12.592;2023-02-15T02:05:22;150.83;;;49.87;;
19414;SDS011;9843;48.882;12.592;2023-02-15T02:07:51;81.43;;;37.03;;
19414;SDS011;9843;48.882;12.592;2023-02-15T02:10:20;121.60;;;41.90;;
19414;SDS011;9843;48.882;12.592;2023-02-15T02:12:49;102.90;;;40.03;;
19414;SDS011;9843;48.882;12.592;2023-02-15T02:15:16;107.07;;;40.77;;
19414;SDS011;9843;48.882;12.592;2023-02-15T02:17:47;130.73;;;41.30;;
19414;SDS011;9843;48.882;12.592;2023-02-15T02:23:25;93.27;;;41.70;;
19414;SDS011;9843;48.882;12.592;2023-02-15T02:26:13;133.40;;;45.23;;
19414;SDS011;9843;48.882;12.592;2023-02-15T02:28:57;88.67;;;36.17;;
19414;SDS011;9843;48.882;12.592;2023-02-15T02:31:31;112.50;;;45.33;;
19414;SDS011;9843;48.882;12.592;2023-02-15T02:34:05;141.47;;;42.07;;
19414;SDS011;9843;48.882;12.592;2023-02-15T02:36:36;110.67;;;39.47;;
19414;SDS011;9843;48.882;12.592;2023-02-15T02:39:12;85.47;;;38.10;;
19414;SDS011;9843;48.882;12.592;2023-02-15T02:41:43;75.13;;;35.47;;
19414;SDS011;9843;48.882;12.592;2023-02-15T02:44:12;131.37;;;42.00;;
19414;SDS011;9843;48.882;12.592;2023-02-15T02:46:43;90.20;;;34.47;;
19414;SDS011;9843;48.882;12.592;2023-02-15T02:49:13;134.97;;;44.97;;
19414;SDS011;9843;48.882;12.592;2023-02-15T02:51:40;95.60;;;41.27;;
19414;SDS011;9843;48.882;12.592;2023-02-15T02:54:07;108.63;;;41.43;;
19414;SDS011;9843;48.882;12.592;2023-02-15T02:56:36;107.27;;;43.73;;
19414;SDS011;9843;48.882;12.592;2023-02-15T02:59:04;98.73;;;35.23;;
19414;SDS011;9843;48.882;12.592;2023-02-15T03:01:34;76.90;;;35.00;;
19414;SDS011;9843;48.882;12.592;2023-02-15T03:04:03;97.73;;;37.53;;
19414;SDS011;9843;48.882;12.592;2023-02-15T03:06:35;74.63;;;33.87;;
19414;SDS011;9843;48.882;12.592;2023-02-15T03:09:06;104.60;;;41.23;;
19414;SDS011;9843;48.882;12.592;2023-02-15T03:11:37;118.90;;;39.43;;
19414;SDS011;9843;48.882;12.592;2023-02-15T03:14:04;98.10;;;36.87;;
19414;SDS011;9843;48.882;12.592;2023-02-15T03:16:31;97.40;;;36.07;;
19414;SDS011;9843;48.882;12.592;2023-02-15T03:18:59;85.20;;;30.43;;
19414;SDS011;9843;48.882;12.592;2023-02-15T03:21:29;96.20;;;33.30;;
19414;SDS011;9843;48.882;12.592;2023-02-15T03:23:59;75.77;;;32.43;;
19414;SDS011;9843;48.882;12.592;2023-02-15T03:26:27;91.47;;;32.07;;
19414;SDS011;9843;48.882;12.592;2023-02-15T03:28:56;65.50;;;29.33;;
19414;SDS011;9843;48.882;12.592;2023-02-15T03:31:24;80.40;;;30.70;;
19414;SDS011;9843;48.882;12.592;2023-02-15T03:33:54;59.60;;;25.80;;
19414;SDS011;9843;48.882;12.592;2023-02-15T03:36:22;60.20;;;28.07;;
19414;SDS011;9843;48.882;12.592;2023-02-15T03:38:54;103.50;;;32.87;;
19414;SDS011;9843;48.882;12.592;2023-02-15T03:41:26;95.90;;;32.63;;
19414;SDS011;9843;48.882;12.592;2023-02-15T03:43:54;76.60;;;29.23;;
19414;SDS011;9843;48.882;12.592;2023-02-15T03:46:23;117.93;;;33.47;;
19414;SDS011;9843;48.882;12.592;2023-02-15T03:49:03;87.80;;;32.27;;
19414;SDS011;9843;48.882;12.592;2023-02-15T03:51:32;73.40;;;33.27;;
19414;SDS011;9843;48.882;12.592;2023-02-15T03:53:59;110.00;;;35.87;;
19414;SDS011;9843;48.882;12.592;2023-02-15T03:56:28;63.97;;;29.80;;
19414;SDS011;9843;48.882;12.592;2023-02-15T03:58:55;105.50;;;37.70;;
19414;SDS011;9843;48.882;12.592;2023-02-15T04:01:42;80.23;;;31.80;;
19414;SDS011;9843;48.882;12.592;2023-02-15T04:04:25;113.87;;;34.57;;
19414;SDS011;9843;48.882;12.592;2023-02-15T04:06:53;81.60;;;31.30;;
19414;SDS011;9843;48.882;12.592;2023-02-15T04:09:20;110.97;;;42.00;;
19414;SDS011;9843;48.882;12.592;2023-02-15T04:12:06;47.77;;;26.03;;
19414;SDS011;9843;48.882;12.592;2023-02-15T04:14:33;67.73;;;32.37;;
19414;SDS011;9843;48.882;12.592;2023-02-15T04:17:18;114.00;;;34.17;;
19414;SDS011;9843;48.882;12.592;2023-02-15T04:19:45;63.57;;;31.00;;
19414;SDS011;9843;48.882;12.592;2023-02-15T04:22:30;132.03;;;38.37;;
19414;SDS011;9843;48.882;12.592;2023-02-15T04:25:14;137.47;;;38.17;;
19414;SDS011;9843;48.882;12.592;2023-02-15T04:27:43;84.33;;;35.17;;
19414;SDS011;9843;48.882;12.592;2023-02-15T04:30:11;74.30;;;31.60;;
19414;SDS011;9843;48.882;12.592;2023-02-15T04:32:39;84.37;;;32.80;;
19414;SDS011;9843;48.882;12.592;2023-02-15T04:35:06;102.00;;;34.17;;
19414;SDS011;9843;48.882;12.592;2023-02-15T04:37:34;74.63;;;32.80;;
19414;SDS011;9843;48.882;12.592;2023-02-15T04:40:01;59.40;;;28.83;;
19414;SDS011;9843;48.882;12.592;2023-02-15T04:42:28;71.37;;;30.53;;
19414;SDS011;9843;48.882;12.592;2023-02-15T04:44:57;108.63;;;34.23;;
19414;SDS011;9843;48.882;12.592;2023-02-15T04:47:24;62.60;;;28.90;;
19414;SDS011;9843;48.882;12.592;2023-02-15T04:49:51;165.10;;;39.87;;
19414;SDS011;9843;48.882;12.592;2023-02-15T04:52:18;78.70;;;34.60;;
19414;SDS011;9843;48.882;12.592;2023-02-15T04:54:45;78.13;;;35.30;;
19414;SDS011;9843;48.882;12.592;2023-02-15T04:57:12;122.40;;;39.37;;
19414;SDS011;9843;48.882;12.592;2023-02-15T04:59:39;109.60;;;35.40;;
19414;SDS011;9843;48.882;12.592;2023-02-15T05:02:08;85.40;;;33.53;;
19414;SDS011;9843;48.882;12.592;2023-02-15T05:04:35;85.97;;;34.07;;
19414;SDS011;9843;48.882;12.592;2023-02-15T05:07:02;77.03;;;30.10;;
19414;SDS011;9843;48.882;12.592;2023-02-15T05:09:29;60.73;;;28.13;;
19414;SDS011;9843;48.882;12.592;2023-02-15T05:11:56;93.53;;;37.13;;
19414;SDS011;9843;48.882;12.592;2023-02-15T05:14:23;136.23;;;36.90;;
19414;SDS011;9843;48.882;12.592;2023-02-15T05:16:50;106.67;;;33.50;;
19414;SDS011;9843;48.882;12.592;2023-02-15T05:19:20;111.83;;;33.60;;
19414;SDS011;9843;48.882;12.592;2023-02-15T05:21:48;65.87;;;29.23;;
19414;SDS011;9843;48.882;12.592;2023-02-15T05:24:15;48.27;;;26.63;;
19414;SDS011;9843;48.882;12.592;2023-02-15T05:26:59;91.13;;;30.57;;
19414;SDS011;9843;48.882;12.592;2023-02-15T05:29:44;53.90;;;27.13;;
19414;SDS011;9843;48.882;12.592;2023-02-15T05:32:12;123.23;;;38.97;;
19414;SDS011;9843;48.882;12.592;2023-02-15T05:34:40;112.03;;;35.47;;
19414;SDS011;9843;48.882;12.592;2023-02-15T05:37:07;65.33;;;28.47;;
19414;SDS011;9843;48.882;12.592;2023-02-15T05:39:34;89.33;;;32.73;;
19414;SDS011;9843;48.882;12.592;2023-02-15T05:42:01;149.87;;;36.27;;
19414;SDS011;9843;48.882;12.592;2023-02-15T05:44:28;122.03;;;33.50;;
19414;SDS011;9843;48.882;12.592;2023-02-15T05:46:56;91.43;;;30.43;;
19414;SDS011;9843;48.882;12.592;2023-02-15T05:49:23;116.70;;;37.13;;
19414;SDS011;9843;48.882;12.592;2023-02-15T05:51:51;75.40;;;29.83;;
19414;SDS011;9843;48.882;12.592;2023-02-15T05:54:18;124.00;;;32.93;;
19414;SDS011;9843;48.882;12.592;2023-02-15T05:56:46;106.43;;;36.70;;
19414;SDS011;9843;48.882;12.592;2023-02-15T05:59:13;62.43;;;29.37;;
19414;SDS011;9843;48.882;12.592;2023-02-15T06:01:40;124.17;;;39.07;;
19414;SDS011;9843;48.882;12.592;2023-02-15T06:04:07;68.63;;;35.90;;
19414;SDS011;9843;48.882;12.592;2023-02-15T06:06:34;108.43;;;38.00;;
19414;SDS011;9843;48.882;12.592;2023-02-15T06:09:02;140.30;;;37.40;;
19414;SDS011;9843;48.882;12.592;2023-02-15T06:11:29;77.50;;;33.17;;
19414;SDS011;9843;48.882;12.592;2023-02-15T06:13:56;77.87;;;33.33;;
19414;SDS011;9843;48.882;12.592;2023-02-15T06:16:23;73.63;;;36.07;;
19414;SDS011;9843;48.882;12.592;2023-02-15T06:18:50;115.00;;;41.83;;
19414;SDS011;9843;48.882;12.592;2023-02-15T06:21:17;73.10;;;32.63;;
19414;SDS011;9843;48.882;12.592;2023-02-15T06:23:45;62.53;;;32.13;;
19414;SDS011;9843;48.882;12.592;2023-02-15T06:26:13;78.40;;;37.10;;
19414;SDS011;9843;48.882;12.592;2023-02-15T06:28:40;94.57;;;37.73;;
19414;SDS011;9843;48.882;12.592;2023-02-15T06:31:07;90.63;;;34.50;;
19414;SDS011;9843;48.882;12.592;2023-02-15T06:33:34;86.87;;;36.33;;
19414;SDS011;9843;48.882;12.592;2023-02-15T06:36:01;80.77;;;34.13;;
19414;SDS011;9843;48.882;12.592;2023-02-15T06:38:29;67.53;;;32.43;;
19414;SDS011;9843;48.882;12.592;2023-02-15T06:40:56;76.30;;;37.03;;
19414;SDS011;9843;48.882;12.592;2023-02-15T06:43:25;86.97;;;35.33;;
19414;SDS011;9843;48.882;12.592;2023-02-15T06:45:52;106.97;;;35.63;;
19414;SDS011;9843;48.882;12.592;2023-02-15T06:48:19;96.07;;;36.70;;
19414;SDS011;9843;48.882;12.592;2023-02-15T06:50:46;106.90;;;37.80;;
19414;SDS011;9843;48.882;12.592;2023-02-15T06:53:14;105.83;;;37.77;;
19414;SDS011;9843;48.882;12.592;2023-02-15T06:55:41;86.93;;;37.97;;
19414;SDS011;9843;48.882;12.592;2023-02-15T06:58:08;112.63;;;37.20;;
19414;SDS011;9843;48.882;12.592;2023-02-15T07:00:36;68.83;;;32.70;;
19414;SDS011;9843;48.882;12.592;2023-02-15T07:03:04;101.53;;;36.23;;
19414;SDS011;9843;48.882;12.592;2023-02-15T07:05:32;113.10;;;40.28;;
19414;SDS011;9843;48.882;12.592;2023-02-15T07:07:59;91.47;;;37.40;;
19414;SDS011;9843;48.882;12.592;2023-02-15T07:10:27;96.93;;;36.37;;
19414;SDS011;9843;48.882;12.592;2023-02-15T07:12:54;93.30;;;35.07;;
19414;SDS011;9843;48.882;12.592;2023-02-15T07:15:20;88.17;;;34.03;;
19414;SDS011;9843;48.882;12.592;2023-02-15T07:17:49;90.83;;;37.80;;
19414;SDS011;9843;48.882;12.592;2023-02-15T07:20:17;89.80;;;34.07;;
19414;SDS011;9843;48.882;12.592;2023-02-15T07:22:44;95.47;;;35.77;;
19414;SDS011;9843;48.882;12.592;2023-02-15T07:25:12;91.53;;;29.40;;
19414;SDS011;9843;48.882;12.592;2023-02-15T07:27:39;79.87;;;30.67;;
19414;SDS011;9843;48.882;12.592;2023-02-15T07:30:07;72.50;;;34.07;;
19414;SDS011;9843;48.882;12.592;2023-02-15T07:32:35;105.27;;;34.13;;
19414;SDS011;9843;48.882;12.592;2023-02-15T07:35:23;100.80;;;37.63;;
19414;SDS011;9843;48.882;12.592;2023-02-15T07:37:50;85.20;;;36.30;;
19414;SDS011;9843;48.882;12.592;2023-02-15T07:40:18;110.87;;;36.40;;
19414;SDS011;9843;48.882;12.592;2023-02-15T07:42:47;83.63;;;29.77;;
19414;SDS011;9843;48.882;12.592;2023-02-15T07:45:14;70.97;;;30.87;;
19414;SDS011;9843;48.882;12.592;2023-02-15T07:47:41;59.90;;;32.77;;
19414;SDS011;9843;48.882;12.592;2023-02-15T07:50:08;79.60;;;34.30;;
19414;SDS011;9843;48.882;12.592;2023-02-15T07:52:37;80.00;;;36.33;;
19414;SDS011;9843;48.882;12.592;2023-02-15T07:55:04;83.23;;;33.10;;
19414;SDS011;9843;48.882;12.592;2023-02-15T07:57:31;86.20;;;35.73;;
19414;SDS011;9843;48.882;12.592;2023-02-15T07:59:58;79.87;;;34.90;;
19414;SDS011;9843;48.882;12.592;2023-02-15T08:02:25;87.07;;;33.00;;
19414;SDS011;9843;48.882;12.592;2023-02-15T08:04:53;73.57;;;32.13;;
19414;SDS011;9843;48.882;12.592;2023-02-15T08:07:20;85.90;;;33.90;;
19414;SDS011;9843;48.882;12.592;2023-02-15T08:09:49;81.07;;;35.40;;
19414;SDS011;9843;48.882;12.592;2023-02-15T08:12:16;80.90;;;36.77;;
19414;SDS011;9843;48.882;12.592;2023-02-15T08:14:43;76.33;;;31.80;;
19414;SDS011;9843;48.882;12.592;2023-02-15T08:17:10;78.77;;;34.60;;
19414;SDS011;9843;48.882;12.592;2023-02-15T08:19:37;73.60;;;32.67;;
19414;SDS011;9843;48.882;12.592;2023-02-15T08:22:05;79.27;;;30.30;;
19414;SDS011;9843;48.882;12.592;2023-02-15T08:24:33;78.37;;;30.90;;
19414;SDS011;9843;48.882;12.592;2023-02-15T08:27:03;66.37;;;34.00;;
19414;SDS011;9843;48.882;12.592;2023-02-15T08:29:30;68.20;;;29.27;;
19414;SDS011;9843;48.882;12.592;2023-02-15T08:31:58;82.67;;;33.07;;
19414;SDS011;9843;48.882;12.592;2023-02-15T08:34:27;89.70;;;30.80;;
19414;SDS011;9843;48.882;12.592;2023-02-15T08:36:54;77.57;;;31.43;;
19414;SDS011;9843;48.882;12.592;2023-02-15T08:39:21;95.47;;;32.80;;
19414;SDS011;9843;48.882;12.592;2023-02-15T08:41:48;115.03;;;37.97;;
19414;SDS011;9843;48.882;12.592;2023-02-15T08:44:17;95.53;;;32.40;;
19414;SDS011;9843;48.882;12.592;2023-02-15T08:46:45;88.63;;;30.53;;
19414;SDS011;9843;48.882;12.592;2023-02-15T08:49:14;53.40;;;30.10;;
19414;SDS011;9843;48.882;12.592;2023-02-15T08:51:42;66.77;;;29.47;;
19414;SDS011;9843;48.882;12.592;2023-02-15T08:54:11;67.95;;;31.90;;
19414;SDS011;9843;48.882;12.592;2023-02-15T08:56:39;63.53;;;28.37;;
19414;SDS011;9843;48.882;12.592;2023-02-15T08:59:06;78.20;;;29.33;;
19414;SDS011;9843;48.882;12.592;2023-02-15T09:01:35;51.17;;;27.47;;
19414;SDS011;9843;48.882;12.592;2023-02-15T09:04:03;64.57;;;28.80;;
19414;SDS011;9843;48.882;12.592;2023-02-15T09:06:30;67.10;;;28.90;;
19414;SDS011;9843;48.882;12.592;2023-02-15T09:08:57;82.27;;;31.53;;
19414;SDS011;9843;48.882;12.592;2023-02-15T09:11:25;68.73;;;30.30;;
19414;SDS011;9843;48.882;12.592;2023-02-15T09:13:53;67.17;;;33.43;;
19414;SDS011;9843;48.882;12.592;2023-02-15T09:16:21;71.43;;;32.47;;
19414;SDS011;9843;48.882;12.592;2023-02-15T09:18:49;69.50;;;30.70;;
19414;SDS011;9843;48.882;12.592;2023-02-15T09:21:17;80.93;;;34.30;;
19414;SDS011;9843;48.882;12.592;2023-02-15T09:23:46;92.43;;;34.83;;
19414;SDS011;9843;48.882;12.592;2023-02-15T09:26:13;76.73;;;31.60;;
19414;SDS011;9843;48.882;12.592;2023-02-15T09:28:41;71.50;;;34.47;;
19414;SDS011;9843;48.882;12.592;2023-02-15T09:31:09;72.87;;;32.60;;
19414;SDS011;9843;48.882;12.592;2023-02-15T09:33:37;83.37;;;38.67;;
19414;SDS011;9843;48.882;12.592;2023-02-15T09:36:06;57.90;;;32.23;;
19414;SDS011;9843;48.882;12.592;2023-02-15T09:38:40;76.40;;;31.77;;
19414;SDS011;9843;48.882;12.592;2023-02-15T09:41:11;64.97;;;34.10;;
19414;SDS011;9843;48.882;12.592;2023-02-15T09:43:44;72.67;;;34.30;;
19414;SDS011;9843;48.882;12.592;2023-02-15T09:46:21;70.20;;;34.57;;
19414;SDS011;9843;48.882;12.592;2023-02-15T09:48:51;67.40;;;32.60;;
19414;SDS011;9843;48.882;12.592;2023-02-15T09:54:08;90.17;;;34.83;;
19414;SDS011;9843;48.882;12.592;2023-02-15T09:56:42;63.47;;;35.47;;
19414;SDS011;9843;48.882;12.592;2023-02-15T09:59:11;66.80;;;36.37;;
19414;SDS011;9843;48.882;12.592;2023-02-15T10:01:43;75.07;;;31.17;;
19414;SDS011;9843;48.882;12.592;2023-02-15T10:04:16;66.03;;;34.33;;
19414;SDS011;9843;48.882;12.592;2023-02-15T10:06:47;72.47;;;34.83;;
19414;SDS011;9843;48.882;12.592;2023-02-15T10:09:25;92.50;;;35.30;;
19414;SDS011;9843;48.882;12.592;2023-02-15T10:11:57;60.53;;;33.70;;
19414;SDS011;9843;48.882;12.592;2023-02-15T10:14:35;71.20;;;36.83;;
19414;SDS011;9843;48.882;12.592;2023-02-15T10:17:09;53.37;;;28.53;;
19414;SDS011;9843;48.882;12.592;2023-02-15T10:19:42;58.43;;;31.67;;
19414;SDS011;9843;48.882;12.592;2023-02-15T10:22:15;62.33;;;30.90;;
19414;SDS011;9843;48.882;12.592;2023-02-15T10:24:53;77.93;;;29.97;;
19414;SDS011;9843;48.882;12.592;2023-02-15T10:27:23;79.37;;;33.00;;
19414;SDS011;9843;48.882;12.592;2023-02-15T10:29:53;71.77;;;33.53;;
19414;SDS011;9843;48.882;12.592;2023-02-15T10:32:26;59.83;;;29.93;;
19414;SDS011;9843;48.882;12.592;2023-02-15T10:34:55;68.17;;;33.37;;
19414;SDS011;9843;48.882;12.592;2023-02-15T10:37:36;75.97;;;35.23;;
19414;SDS011;9843;48.882;12.592;2023-02-15T10:40:10;69.40;;;36.67;;
19414;SDS011;9843;48.882;12.592;2023-02-15T10:42:45;64.57;;;33.07;;
19414;SDS011;9843;48.882;12.592;2023-02-15T10:45:18;60.03;;;31.93;;
19414;SDS011;9843;48.882;12.592;2023-02-15T10:47:52;66.83;;;33.10;;
19414;SDS011;9843;48.882;12.592;2023-02-15T10:50:29;75.63;;;37.27;;
19414;SDS011;9843;48.882;12.592;2023-02-15T10:52:59;60.50;;;34.83;;
19414;SDS011;9843;48.882;12.592;2023-02-15T10:55:36;55.70;;;32.70;;
19414;SDS011;9843;48.882;12.592;2023-02-15T10:58:07;68.23;;;37.13;;
19414;SDS011;9843;48.882;12.592;2023-02-15T11:00:39;55.77;;;32.33;;
19414;SDS011;9843;48.882;12.592;2023-02-15T11:03:14;62.17;;;32.47;;
19414;SDS011;9843;48.882;12.592;2023-02-15T11:05:45;62.93;;;34.90;;
19414;SDS011;9843;48.882;12.592;2023-02-15T11:08:16;56.27;;;31.37;;
19414;SDS011;9843;48.882;12.592;2023-02-15T11:10:45;52.50;;;31.43;;
19414;SDS011;9843;48.882;12.592;2023-02-15T11:13:16;51.43;;;29.57;;
19414;SDS011;9843;48.882;12.592;2023-02-15T11:15:44;56.03;;;30.57;;
19414;SDS011;9843;48.882;12.592;2023-02-15T11:18:14;56.50;;;35.10;;
19414;SDS011;9843;48.882;12.592;2023-02-15T11:20:42;55.30;;;30.57;;
19414;SDS011;9843;48.882;12.592;2023-02-15T11:23:12;52.23;;;29.87;;
19414;SDS011;9843;48.882;12.592;2023-02-15T11:25:41;57.60;;;30.53;;
19414;SDS011;9843;48.882;12.592;2023-02-15T11:28:13;60.03;;;32.83;;
19414;SDS011;9843;48.882;12.592;2023-02-15T11:30:45;65.60;;;33.40;;
19414;SDS011;9843;48.882;12.592;2023-02-15T11:33:14;63.60;;;34.23;;
19414;SDS011;9843;48.882;12.592;2023-02-15T11:35:46;58.53;;;31.50;;
19414;SDS011;9843;48.882;12.592;2023-02-15T11:38:16;65.33;;;32.43;;
19414;SDS011;9843;48.882;12.592;2023-02-15T11:40:45;57.57;;;33.30;;
19414;SDS011;9843;48.882;12.592;2023-02-15T11:43:16;55.77;;;31.80;;
19414;SDS011;9843;48.882;12.592;2023-02-15T11:45:44;66.33;;;34.07;;
19414;SDS011;9843;48.882;12.592;2023-02-15T11:48:13;58.83;;;34.53;;
19414;SDS011;9843;48.882;12.592;2023-02-15T11:50:40;62.40;;;31.47;;
19414;SDS011;9843;48.882;12.592;2023-02-15T11:53:09;74.20;;;37.33;;
19414;SDS011;9843;48.882;12.592;2023-02-15T11:55:37;66.27;;;32.17;;
19414;SDS011;9843;48.882;12.592;2023-02-15T11:58:06;65.33;;;33.77;;
19414;SDS011;9843;48.882;12.592;2023-02-15T12:00:38;58.03;;;33.77;;
19414;SDS011;9843;48.882;12.592;2023-02-15T12:03:11;76.60;;;35.77;;
19414;SDS011;9843;48.882;12.592;2023-02-15T12:05:40;61.67;;;31.60;;
19414;SDS011;9843;48.882;12.592;2023-02-15T12:08:11;59.40;;;34.13;;
19414;SDS011;9843;48.882;12.592;2023-02-15T12:10:41;56.43;;;36.53;;
19414;SDS011;9843;48.882;12.592;2023-02-15T12:13:10;51.30;;;29.43;;
19414;SDS011;9843;48.882;12.592;2023-02-15T12:15:39;52.63;;;31.30;;
19414;SDS011;9843;48.882;12.592;2023-02-15T12:18:15;56.33;;;31.20;;
19414;SDS011;9843;48.882;12.592;2023-02-15T12:20:43;49.00;;;31.33;;
19414;SDS011;9843;48.882;12.592;2023-02-15T12:23:12;56.83;;;35.67;;
19414;SDS011;9843;48.882;12.592;2023-02-15T12:25:40;51.90;;;30.50;;
19414;SDS011;9843;48.882;12.592;2023-02-15T12:28:16;56.40;;;31.90;;
19414;SDS011;9843;48.882;12.592;2023-02-15T12:30:46;55.47;;;33.10;;
19414;SDS011;9843;48.882;12.592;2023-02-15T12:33:14;52.87;;;27.70;;
19414;SDS011;9843;48.882;12.592;2023-02-15T12:35:43;37.80;;;25.00;;
19414;SDS011;9843;48.882;12.592;2023-02-15T12:38:19;42.80;;;27.20;;
19414;SDS011;9843;48.882;12.592;2023-02-15T12:40:56;56.33;;;33.93;;
19414;SDS011;9843;48.882;12.592;2023-02-15T12:43:24;46.23;;;27.17;;
19414;SDS011;9843;48.882;12.592;2023-02-15T12:45:53;44.83;;;30.80;;
19414;SDS011;9843;48.882;12.592;2023-02-15T12:48:21;42.77;;;27.40;;
19414;SDS011;9843;48.882;12.592;2023-02-15T12:50:48;41.93;;;27.70;;
19414;SDS011;9843;48.882;12.592;2023-02-15T12:53:16;43.90;;;26.73;;
19414;SDS011;9843;48.882;12.592;2023-02-15T12:55:51;48.07;;;27.47;;
19414;SDS011;9843;48.882;12.592;2023-02-15T12:58:20;39.50;;;23.67;;
19414;SDS011;9843;48.882;12.592;2023-02-15T13:01:01;51.97;;;28.57;;
19414;SDS011;9843;48.882;12.592;2023-02-15T13:03:29;50.23;;;27.23;;
19414;SDS011;9843;48.882;12.592;2023-02-15T13:05:56;59.17;;;28.90;;
19414;SDS011;9843;48.882;12.592;2023-02-15T13:08:27;52.83;;;30.03;;
19414;SDS011;9843;48.882;12.592;2023-02-15T13:10:55;65.73;;;35.40;;
19414;SDS011;9843;48.882;12.592;2023-02-15T13:13:24;55.03;;;29.70;;
19414;SDS011;9843;48.882;12.592;2023-02-15T13:15:52;57.23;;;28.17;;
19414;SDS011;9843;48.882;12.592;2023-02-15T13:18:23;55.17;;;30.50;;
19414;SDS011;9843;48.882;12.592;2023-02-15T13:20:53;49.67;;;30.10;;
19414;SDS011;9843;48.882;12.592;2023-02-15T13:23:24;60.57;;;31.87;;
19414;SDS011;9843;48.882;12.592;2023-02-15T13:25:54;55.72;;;32.97;;
19414;SDS011;9843;48.882;12.592;2023-02-15T13:28:22;60.95;;;33.42;;
19414;SDS011;9843;48.882;12.592;2023-02-15T13:30:51;54.37;;;28.27;;
19414;SDS011;9843;48.882;12.592;2023-02-15T13:33:20;48.73;;;29.53;;
19414;SDS011;9843;48.882;12.592;2023-02-15T13:35:54;66.60;;;38.30;;
19414;SDS011;9843;48.882;12.592;2023-02-15T13:38:27;56.57;;;35.17;;
19414;SDS011;9843;48.882;12.592;2023-02-15T13:41:01;57.90;;;32.97;;
19414;SDS011;9843;48.882;12.592;2023-02-15T13:43:35;45.93;;;30.90;;
19414;SDS011;9843;48.882;12.592;2023-02-15T13:46:07;57.70;;;31.13;;
19414;SDS011;9843;48.882;12.592;2023-02-15T13:48:40;53.43;;;29.80;;
19414;SDS011;9843;48.882;12.592;2023-02-15T13:51:11;62.27;;;33.70;;
19414;SDS011;9843;48.882;12.592;2023-02-15T13:53:49;48.37;;;31.27;;
19414;SDS011;9843;48.882;12.592;2023-02-15T13:56:23;49.57;;;31.20;;
19414;SDS011;9843;48.882;12.592;2023-02-15T13:59:00;52.77;;;32.37;;
19414;SDS011;9843;48.882;12.592;2023-02-15T14:01:31;50.97;;;29.37;;
19414;SDS011;9843;48.882;12.592;2023-02-15T14:04:15;64.83;;;35.13;;
19414;SDS011;9843;48.882;12.592;2023-02-15T14:06:52;56.07;;;30.90;;
19414;SDS011;9843;48.882;12.592;2023-02-15T14:09:24;48.90;;;32.50;;
19414;SDS011;9843;48.882;12.592;2023-02-15T14:11:57;54.23;;;30.10;;
19414;SDS011;9843;48.882;12.592;2023-02-15T14:14:42;45.17;;;27.90;;
19414;SDS011;9843;48.882;12.592;2023-02-15T14:17:17;45.60;;;29.40;;
19414;SDS011;9843;48.882;12.592;2023-02-15T14:19:48;48.10;;;31.00;;
19414;SDS011;9843;48.882;12.592;2023-02-15T14:22:21;49.63;;;28.63;;
19414;SDS011;9843;48.882;12.592;2023-02-15T14:24:55;44.20;;;28.93;;
19414;SDS011;9843;48.882;12.592;2023-02-15T14:27:26;44.97;;;28.70;;
19414;SDS011;9843;48.882;12.592;2023-02-15T14:29:56;51.37;;;30.93;;
19414;SDS011;9843;48.882;12.592;2023-02-15T14:32:25;51.07;;;26.57;;
19414;SDS011;9843;48.882;12.592;2023-02-15T14:34:54;54.07;;;29.23;;
19414;SDS011;9843;48.882;12.592;2023-02-15T14:37:26;53.10;;;32.17;;
19414;SDS011;9843;48.882;12.592;2023-02-15T14:39:55;43.20;;;25.60;;